sensor_id;sensor_type;location;lat;lon;timestamp;P1;durP1;ratioP1;P2;durP2;ratioP2
13685;SDS011;6915;48.296;8.874;2022-11-15T00:02:14;1.60;;;1.50;;
13685;SDS011;6915;48.296;8.874;2022-11-15T00:04:41;2.47;;;1.43;;
13685;SDS011;6915;48.296;8.874;2022-11-15T00:07:09;3.93;;;1.37;;
13685;SDS011;6915;48.296;8.874;2022-11-15T00:09:36;1.87;;;1.30;;
13685;SDS011;6915;48.296;8.874;2022-11-15T00:12:03;2.57;;;1.30;;
13685;SDS011;6915;48.296;8.874;2022-11-15T00:14:30;1.40;;;1.10;;
13685;SDS011;6915;48.296;8.874;2022-11-15T00:16:57;1.27;;;1.17;;
13685;SDS011;6915;48.296;8.874;2022-11-15T00:19:24;1.90;;;1.47;;
13685;SDS011;6915;48.296;8.874;2022-11-15T00:21:51;2.20;;;1.50;;
13685;SDS011;6915;48.296;8.874;2022-11-15T00:24:20;2.80;;;1.40;;
13685;SDS011;6915;48.296;8.874;2022-11-15T00:26:47;1.60;;;1.50;;
13685;SDS011;6915;48.296;8.874;2022-11-15T00:29:14;2.10;;;1.53;;
13685;SDS011;6915;48.296;8.874;2022-11-15T00:31:41;4.50;;;1.33;;
13685;SDS011;6915;48.296;8.874;2022-11-15T00:34:08;2.13;;;1.20;;
13685;SDS011;6915;48.296;8.874;2022-11-15T00:36:36;1.87;;;1.27;;
13685;SDS011;6915;48.296;8.874;2022-11-15T00:39:03;1.43;;;1.33;;
13685;SDS011;6915;48.296;8.874;2022-11-15T00:41:32;1.53;;;0.97;;
13685;SDS011;6915;48.296;8.874;2022-11-15T00:43:59;2.40;;;1.40;;
13685;SDS011;6915;48.296;8.874;2022-11-15T00:46:26;2.43;;;1.40;;
13685;SDS011;6915;48.296;8.874;2022-11-15T00:48:53;2.03;;;1.60;;
13685;SDS011;6915;48.296;8.874;2022-11-15T00:51:20;1.70;;;1.60;;
13685;SDS011;6915;48.296;8.874;2022-11-15T00:53:47;4.07;;;1.33;;
13685;SDS011;6915;48.296;8.874;2022-11-15T00:56:14;3.33;;;1.43;;
13685;SDS011;6915;48.296;8.874;2022-11-15T00:58:42;1.70;;;1.40;;
13685;SDS011;6915;48.296;8.874;2022-11-15T01:01:10;2.17;;;1.70;;
13685;SDS011;6915;48.296;8.874;2022-11-15T01:03:38;3.07;;;1.20;;
13685;SDS011;6915;48.296;8.874;2022-11-15T01:06:07;1.43;;;1.30;;
13685;SDS011;6915;48.296;8.874;2022-11-15T01:08:35;1.83;;;1.67;;
13685;SDS011;6915;48.296;8.874;2022-11-15T01:11:02;2.20;;;2.00;;
13685;SDS011;6915;48.296;8.874;2022-11-15T01:13:31;2.10;;;1.63;;
13685;SDS011;6915;48.296;8.874;2022-11-15T01:16:04;1.83;;;1.50;;
13685;SDS011;6915;48.296;8.874;2022-11-15T01:18:32;2.10;;;1.90;;
13685;SDS011;6915;48.296;8.874;2022-11-15T01:21:00;3.13;;;1.93;;
13685;SDS011;6915;48.296;8.874;2022-11-15T01:23:31;3.90;;;1.80;;
13685;SDS011;6915;48.296;8.874;2022-11-15T01:25:59;2.03;;;1.60;;
13685;SDS011;6915;48.296;8.874;2022-11-15T01:28:28;2.00;;;1.80;;
13685;SDS011;6915;48.296;8.874;2022-11-15T01:30:57;1.63;;;1.40;;
13685;SDS011;6915;48.296;8.874;2022-11-15T01:33:26;1.50;;;1.40;;
13685;SDS011;6915;48.296;8.874;2022-11-15T01:35:53;4.13;;;1.93;;
13685;SDS011;6915;48.296;8.874;2022-11-15T01:38:21;3.20;;;1.80;;
13685;SDS011;6915;48.296;8.874;2022-11-15T01:40:48;2.73;;;1.83;;
13685;SDS011;6915;48.296;8.874;2022-11-15T01:43:21;2.80;;;1.77;;
13685;SDS011;6915;48.296;8.874;2022-11-15T01:45:50;3.37;;;1.47;;
13685;SDS011;6915;48.296;8.874;2022-11-15T01:48:21;3.83;;;1.70;;
13685;SDS011;6915;48.296;8.874;2022-11-15T01:50:51;4.37;;;1.70;;
13685;SDS011;6915;48.296;8.874;2022-11-15T01:53:19;2.83;;;1.80;;
13685;SDS011;6915;48.296;8.874;2022-11-15T01:55:49;4.50;;;1.80;;
13685;SDS011;6915;48.296;8.874;2022-11-15T01:58:16;3.67;;;1.80;;
13685;SDS011;6915;48.296;8.874;2022-11-15T02:00:43;1.87;;;1.70;;
13685;SDS011;6915;48.296;8.874;2022-11-15T02:03:10;1.70;;;1.40;;
13685;SDS011;6915;48.296;8.874;2022-11-15T02:05:38;2.60;;;1.70;;
13685;SDS011;6915;48.296;8.874;2022-11-15T02:08:07;4.00;;;1.70;;
13685;SDS011;6915;48.296;8.874;2022-11-15T02:10:44;2.30;;;1.17;;
13685;SDS011;6915;48.296;8.874;2022-11-15T02:13:11;1.10;;;1.00;;
13685;SDS011;6915;48.296;8.874;2022-11-15T02:15:40;3.07;;;1.70;;
13685;SDS011;6915;48.296;8.874;2022-11-15T02:18:17;5.00;;;1.80;;
13685;SDS011;6915;48.296;8.874;2022-11-15T02:21:09;2.53;;;2.07;;
13685;SDS011;6915;48.296;8.874;2022-11-15T02:30:00;4.83;;;1.80;;
13685;SDS011;6915;48.296;8.874;2022-11-15T02:32:40;2.23;;;2.03;;
13685;SDS011;6915;48.296;8.874;2022-11-15T02:35:12;2.77;;;1.70;;
13685;SDS011;6915;48.296;8.874;2022-11-15T02:37:50;3.00;;;1.70;;
13685;SDS011;6915;48.296;8.874;2022-11-15T02:40:24;3.53;;;1.57;;
13685;SDS011;6915;48.296;8.874;2022-11-15T02:43:00;1.80;;;1.70;;
13685;SDS011;6915;48.296;8.874;2022-11-15T02:45:53;2.97;;;1.90;;
13685;SDS011;6915;48.296;8.874;2022-11-15T02:48:27;2.10;;;1.90;;
13685;SDS011;6915;48.296;8.874;2022-11-15T02:50:56;1.70;;;1.60;;
13685;SDS011;6915;48.296;8.874;2022-11-15T02:53:24;1.97;;;1.50;;
13685;SDS011;6915;48.296;8.874;2022-11-15T02:55:51;5.07;;;1.53;;
13685;SDS011;6915;48.296;8.874;2022-11-15T02:58:34;3.13;;;1.70;;
13685;SDS011;6915;48.296;8.874;2022-11-15T03:01:22;2.80;;;1.60;;
13685;SDS011;6915;48.296;8.874;2022-11-15T03:03:59;1.57;;;1.47;;
13685;SDS011;6915;48.296;8.874;2022-11-15T03:06:34;4.47;;;2.00;;
13685;SDS011;6915;48.296;8.874;2022-11-15T03:09:07;3.63;;;2.30;;
13685;SDS011;6915;48.296;8.874;2022-11-15T03:11:40;3.57;;;2.60;;
13685;SDS011;6915;48.296;8.874;2022-11-15T03:14:16;3.83;;;2.00;;
13685;SDS011;6915;48.296;8.874;2022-11-15T03:16:49;3.37;;;2.00;;
13685;SDS011;6915;48.296;8.874;2022-11-15T03:19:25;6.10;;;2.20;;
13685;SDS011;6915;48.296;8.874;2022-11-15T03:21:57;3.00;;;2.00;;
13685;SDS011;6915;48.296;8.874;2022-11-15T03:24:26;2.40;;;2.20;;
13685;SDS011;6915;48.296;8.874;2022-11-15T03:26:56;3.53;;;2.30;;
13685;SDS011;6915;48.296;8.874;2022-11-15T03:29:27;4.00;;;2.80;;
13685;SDS011;6915;48.296;8.874;2022-11-15T03:32:00;6.37;;;4.07;;
13685;SDS011;6915;48.296;8.874;2022-11-15T03:34:31;6.73;;;4.77;;
13685;SDS011;6915;48.296;8.874;2022-11-15T03:37:02;6.20;;;3.97;;
13685;SDS011;6915;48.296;8.874;2022-11-15T03:39:30;5.57;;;3.67;;
13685;SDS011;6915;48.296;8.874;2022-11-15T03:44:33;7.53;;;4.70;;
13685;SDS011;6915;48.296;8.874;2022-11-15T03:47:08;5.10;;;4.07;;
13685;SDS011;6915;48.296;8.874;2022-11-15T03:49:40;6.27;;;4.17;;
13685;SDS011;6915;48.296;8.874;2022-11-15T03:52:11;6.97;;;3.90;;
13685;SDS011;6915;48.296;8.874;2022-11-15T03:54:47;4.20;;;3.17;;
13685;SDS011;6915;48.296;8.874;2022-11-15T03:57:24;5.27;;;3.20;;
13685;SDS011;6915;48.296;8.874;2022-11-15T03:59:51;5.83;;;3.50;;
13685;SDS011;6915;48.296;8.874;2022-11-15T04:02:19;5.43;;;2.90;;
13685;SDS011;6915;48.296;8.874;2022-11-15T04:04:46;5.37;;;3.00;;
13685;SDS011;6915;48.296;8.874;2022-11-15T04:07:13;3.30;;;3.00;;
13685;SDS011;6915;48.296;8.874;2022-11-15T04:09:40;4.40;;;3.60;;
13685;SDS011;6915;48.296;8.874;2022-11-15T04:12:21;9.60;;;3.57;;
13685;SDS011;6915;48.296;8.874;2022-11-15T04:14:55;5.53;;;3.57;;
13685;SDS011;6915;48.296;8.874;2022-11-15T04:17:34;3.97;;;2.80;;
13685;SDS011;6915;48.296;8.874;2022-11-15T04:20:03;5.80;;;3.10;;
13685;SDS011;6915;48.296;8.874;2022-11-15T04:22:48;3.63;;;2.80;;
13685;SDS011;6915;48.296;8.874;2022-11-15T04:25:32;4.83;;;2.67;;
13685;SDS011;6915;48.296;8.874;2022-11-15T04:27:59;5.67;;;2.60;;
13685;SDS011;6915;48.296;8.874;2022-11-15T04:30:26;5.10;;;2.80;;
13685;SDS011;6915;48.296;8.874;2022-11-15T04:32:54;3.83;;;2.60;;
13685;SDS011;6915;48.296;8.874;2022-11-15T04:35:21;3.13;;;2.40;;
13685;SDS011;6915;48.296;8.874;2022-11-15T04:37:48;3.70;;;2.67;;
13685;SDS011;6915;48.296;8.874;2022-11-15T04:40:14;5.00;;;2.80;;
13685;SDS011;6915;48.296;8.874;2022-11-15T04:42:41;3.57;;;2.47;;
13685;SDS011;6915;48.296;8.874;2022-11-15T04:45:09;2.40;;;2.20;;
13685;SDS011;6915;48.296;8.874;2022-11-15T04:47:36;5.50;;;3.10;;
13685;SDS011;6915;48.296;8.874;2022-11-15T04:50:05;3.27;;;2.70;;
13685;SDS011;6915;48.296;8.874;2022-11-15T04:52:32;4.63;;;3.00;;
13685;SDS011;6915;48.296;8.874;2022-11-15T04:54:59;5.13;;;3.43;;
13685;SDS011;6915;48.296;8.874;2022-11-15T04:57:26;4.20;;;3.73;;
13685;SDS011;6915;48.296;8.874;2022-11-15T04:59:53;5.50;;;3.73;;
13685;SDS011;6915;48.296;8.874;2022-11-15T05:02:20;5.63;;;3.37;;
13685;SDS011;6915;48.296;8.874;2022-11-15T05:04:47;5.90;;;3.97;;
13685;SDS011;6915;48.296;8.874;2022-11-15T05:07:14;4.20;;;3.50;;
13685;SDS011;6915;48.296;8.874;2022-11-15T05:09:41;3.73;;;3.10;;
13685;SDS011;6915;48.296;8.874;2022-11-15T05:12:08;6.57;;;4.10;;
13685;SDS011;6915;48.296;8.874;2022-11-15T05:14:35;5.60;;;4.00;;
13685;SDS011;6915;48.296;8.874;2022-11-15T05:17:02;5.90;;;3.80;;
13685;SDS011;6915;48.296;8.874;2022-11-15T05:19:29;5.53;;;4.27;;
13685;SDS011;6915;48.296;8.874;2022-11-15T05:21:56;8.53;;;5.97;;
13685;SDS011;6915;48.296;8.874;2022-11-15T05:24:25;6.43;;;5.77;;
13685;SDS011;6915;48.296;8.874;2022-11-15T05:26:52;6.83;;;5.73;;
13685;SDS011;6915;48.296;8.874;2022-11-15T05:29:19;9.13;;;5.50;;
13685;SDS011;6915;48.296;8.874;2022-11-15T05:31:46;5.97;;;5.07;;
13685;SDS011;6915;48.296;8.874;2022-11-15T05:34:13;6.60;;;5.50;;
13685;SDS011;6915;48.296;8.874;2022-11-15T05:36:41;4.57;;;4.17;;
13685;SDS011;6915;48.296;8.874;2022-11-15T05:39:09;6.27;;;4.50;;
13685;SDS011;6915;48.296;8.874;2022-11-15T05:41:39;5.37;;;4.27;;
13685;SDS011;6915;48.296;8.874;2022-11-15T05:44:10;9.13;;;6.60;;
13685;SDS011;6915;48.296;8.874;2022-11-15T05:46:39;9.20;;;6.50;;
13685;SDS011;6915;48.296;8.874;2022-11-15T05:49:09;11.73;;;7.17;;
13685;SDS011;6915;48.296;8.874;2022-11-15T05:51:38;10.53;;;6.67;;
13685;SDS011;6915;48.296;8.874;2022-11-15T05:54:06;8.87;;;6.13;;
13685;SDS011;6915;48.296;8.874;2022-11-15T05:56:34;7.97;;;5.23;;
13685;SDS011;6915;48.296;8.874;2022-11-15T05:59:02;6.93;;;5.10;;
13685;SDS011;6915;48.296;8.874;2022-11-15T06:01:30;9.83;;;5.50;;
13685;SDS011;6915;48.296;8.874;2022-11-15T06:03:57;7.33;;;5.30;;
13685;SDS011;6915;48.296;8.874;2022-11-15T06:06:24;7.70;;;5.27;;
13685;SDS011;6915;48.296;8.874;2022-11-15T06:08:53;6.70;;;5.10;;
13685;SDS011;6915;48.296;8.874;2022-11-15T06:11:20;8.07;;;4.87;;
13685;SDS011;6915;48.296;8.874;2022-11-15T06:13:47;7.53;;;5.00;;
13685;SDS011;6915;48.296;8.874;2022-11-15T06:16:15;8.67;;;5.70;;
13685;SDS011;6915;48.296;8.874;2022-11-15T06:18:42;7.33;;;5.17;;
13685;SDS011;6915;48.296;8.874;2022-11-15T06:21:10;6.50;;;4.87;;
13685;SDS011;6915;48.296;8.874;2022-11-15T06:23:37;15.10;;;8.97;;
13685;SDS011;6915;48.296;8.874;2022-11-15T06:26:04;11.50;;;7.10;;
13685;SDS011;6915;48.296;8.874;2022-11-15T06:28:31;17.93;;;9.13;;
13685;SDS011;6915;48.296;8.874;2022-11-15T06:31:01;18.03;;;10.93;;
13685;SDS011;6915;48.296;8.874;2022-11-15T06:33:31;15.60;;;9.80;;
13685;SDS011;6915;48.296;8.874;2022-11-15T06:35:59;12.40;;;8.87;;
13685;SDS011;6915;48.296;8.874;2022-11-15T06:38:27;14.73;;;9.07;;
13685;SDS011;6915;48.296;8.874;2022-11-15T06:40:54;14.17;;;9.40;;
13685;SDS011;6915;48.296;8.874;2022-11-15T06:43:21;14.40;;;9.63;;
13685;SDS011;6915;48.296;8.874;2022-11-15T06:45:48;14.40;;;9.47;;
13685;SDS011;6915;48.296;8.874;2022-11-15T06:48:15;22.67;;;13.20;;
13685;SDS011;6915;48.296;8.874;2022-11-15T06:50:43;28.03;;;16.40;;
13685;SDS011;6915;48.296;8.874;2022-11-15T06:53:16;11.83;;;7.10;;
13685;SDS011;6915;48.296;8.874;2022-11-15T06:55:43;11.53;;;6.83;;
13685;SDS011;6915;48.296;8.874;2022-11-15T06:58:10;11.80;;;8.33;;
13685;SDS011;6915;48.296;8.874;2022-11-15T07:00:37;5.20;;;3.80;;
13685;SDS011;6915;48.296;8.874;2022-11-15T07:03:05;14.73;;;9.23;;
13685;SDS011;6915;48.296;8.874;2022-11-15T07:05:32;10.40;;;7.10;;
13685;SDS011;6915;48.296;8.874;2022-11-15T07:08:01;11.37;;;7.77;;
13685;SDS011;6915;48.296;8.874;2022-11-15T07:10:28;9.30;;;6.77;;
13685;SDS011;6915;48.296;8.874;2022-11-15T07:12:56;13.23;;;6.30;;
13685;SDS011;6915;48.296;8.874;2022-11-15T07:15:23;5.63;;;3.63;;
13685;SDS011;6915;48.296;8.874;2022-11-15T07:17:51;3.70;;;3.30;;
13685;SDS011;6915;48.296;8.874;2022-11-15T07:20:18;3.60;;;3.30;;
13685;SDS011;6915;48.296;8.874;2022-11-15T07:22:45;9.27;;;4.17;;
13685;SDS011;6915;48.296;8.874;2022-11-15T07:25:13;5.80;;;4.53;;
13685;SDS011;6915;48.296;8.874;2022-11-15T07:27:41;5.67;;;3.70;;
13685;SDS011;6915;48.296;8.874;2022-11-15T07:30:08;7.67;;;5.33;;
13685;SDS011;6915;48.296;8.874;2022-11-15T07:32:35;8.20;;;4.80;;
13685;SDS011;6915;48.296;8.874;2022-11-15T07:35:03;10.63;;;5.50;;
13685;SDS011;6915;48.296;8.874;2022-11-15T07:37:30;8.47;;;5.20;;
13685;SDS011;6915;48.296;8.874;2022-11-15T07:39:58;7.37;;;4.23;;
13685;SDS011;6915;48.296;8.874;2022-11-15T07:42:26;6.37;;;4.20;;
13685;SDS011;6915;48.296;8.874;2022-11-15T07:45:25;5.07;;;3.90;;
13685;SDS011;6915;48.296;8.874;2022-11-15T07:47:52;8.73;;;4.30;;
13685;SDS011;6915;48.296;8.874;2022-11-15T07:50:21;8.40;;;4.70;;
13685;SDS011;6915;48.296;8.874;2022-11-15T07:52:52;7.17;;;4.43;;
13685;SDS011;6915;48.296;8.874;2022-11-15T07:55:21;7.93;;;4.00;;
13685;SDS011;6915;48.296;8.874;2022-11-15T07:57:49;7.00;;;3.73;;
13685;SDS011;6915;48.296;8.874;2022-11-15T08:00:17;6.87;;;3.53;;
13685;SDS011;6915;48.296;8.874;2022-11-15T08:02:44;4.97;;;3.20;;
13685;SDS011;6915;48.296;8.874;2022-11-15T08:05:12;4.57;;;3.10;;
13685;SDS011;6915;48.296;8.874;2022-11-15T08:07:39;6.40;;;3.17;;
13685;SDS011;6915;48.296;8.874;2022-11-15T08:10:06;6.10;;;2.93;;
13685;SDS011;6915;48.296;8.874;2022-11-15T08:12:34;5.33;;;2.83;;
13685;SDS011;6915;48.296;8.874;2022-11-15T08:15:03;4.83;;;2.50;;
13685;SDS011;6915;48.296;8.874;2022-11-15T08:17:30;6.23;;;2.57;;
13685;SDS011;6915;48.296;8.874;2022-11-15T08:19:59;4.70;;;2.73;;
13685;SDS011;6915;48.296;8.874;2022-11-15T08:22:25;4.03;;;2.60;;
13685;SDS011;6915;48.296;8.874;2022-11-15T08:24:52;2.40;;;2.20;;
13685;SDS011;6915;48.296;8.874;2022-11-15T08:27:19;2.30;;;2.00;;
13685;SDS011;6915;48.296;8.874;2022-11-15T08:29:48;4.30;;;1.73;;
13685;SDS011;6915;48.296;8.874;2022-11-15T08:32:17;4.20;;;1.70;;
13685;SDS011;6915;48.296;8.874;2022-11-15T08:34:44;2.60;;;1.63;;
13685;SDS011;6915;48.296;8.874;2022-11-15T08:37:11;2.43;;;1.70;;
13685;SDS011;6915;48.296;8.874;2022-11-15T08:39:38;1.40;;;1.30;;
13685;SDS011;6915;48.296;8.874;2022-11-15T08:42:05;1.97;;;1.30;;
13685;SDS011;6915;48.296;8.874;2022-11-15T08:44:35;2.20;;;1.40;;
13685;SDS011;6915;48.296;8.874;2022-11-15T08:47:03;4.20;;;1.30;;
13685;SDS011;6915;48.296;8.874;2022-11-15T08:49:32;2.13;;;1.23;;
13685;SDS011;6915;48.296;8.874;2022-11-15T08:51:59;1.53;;;1.40;;
13685;SDS011;6915;48.296;8.874;2022-11-15T08:54:26;2.83;;;1.70;;
13685;SDS011;6915;48.296;8.874;2022-11-15T08:56:54;3.80;;;2.13;;
13685;SDS011;6915;48.296;8.874;2022-11-15T08:59:21;3.07;;;2.10;;
13685;SDS011;6915;48.296;8.874;2022-11-15T09:01:49;3.23;;;2.30;;
13685;SDS011;6915;48.296;8.874;2022-11-15T09:04:16;4.97;;;2.37;;
13685;SDS011;6915;48.296;8.874;2022-11-15T09:06:44;3.47;;;2.30;;
13685;SDS011;6915;48.296;8.874;2022-11-15T09:09:12;4.57;;;2.37;;
13685;SDS011;6915;48.296;8.874;2022-11-15T09:11:40;4.97;;;2.50;;
13685;SDS011;6915;48.296;8.874;2022-11-15T09:14:07;2.50;;;2.20;;
13685;SDS011;6915;48.296;8.874;2022-11-15T09:16:37;4.90;;;2.27;;
13685;SDS011;6915;48.296;8.874;2022-11-15T09:19:05;3.73;;;2.37;;
13685;SDS011;6915;48.296;8.874;2022-11-15T09:21:32;3.93;;;2.50;;
13685;SDS011;6915;48.296;8.874;2022-11-15T09:24:00;4.27;;;2.40;;
13685;SDS011;6915;48.296;8.874;2022-11-15T09:26:29;2.77;;;2.50;;
13685;SDS011;6915;48.296;8.874;2022-11-15T09:28:56;3.17;;;2.33;;
13685;SDS011;6915;48.296;8.874;2022-11-15T09:31:23;3.53;;;2.33;;
13685;SDS011;6915;48.296;8.874;2022-11-15T09:33:51;3.07;;;2.10;;
13685;SDS011;6915;48.296;8.874;2022-11-15T09:36:18;5.63;;;2.20;;
13685;SDS011;6915;48.296;8.874;2022-11-15T09:38:45;3.30;;;2.03;;
13685;SDS011;6915;48.296;8.874;2022-11-15T09:41:25;4.00;;;1.80;;
13685;SDS011;6915;48.296;8.874;2022-11-15T09:44:08;3.37;;;1.80;;
13685;SDS011;6915;48.296;8.874;2022-11-15T09:46:50;1.70;;;1.60;;
13685;SDS011;6915;48.296;8.874;2022-11-15T09:49:27;2.53;;;2.10;;
13685;SDS011;6915;48.296;8.874;2022-11-15T09:51:57;2.60;;;1.90;;
13685;SDS011;6915;48.296;8.874;2022-11-15T09:54:26;2.23;;;1.83;;
13685;SDS011;6915;48.296;8.874;2022-11-15T09:57:02;4.77;;;1.90;;
13685;SDS011;6915;48.296;8.874;2022-11-15T09:59:47;2.03;;;1.87;;
13685;SDS011;6915;48.296;8.874;2022-11-15T10:02:33;2.00;;;1.80;;
13685;SDS011;6915;48.296;8.874;2022-11-15T10:05:22;2.63;;;1.93;;
13685;SDS011;6915;48.296;8.874;2022-11-15T10:07:53;3.60;;;2.23;;
13685;SDS011;6915;48.296;8.874;2022-11-15T10:10:26;3.33;;;2.07;;
13685;SDS011;6915;48.296;8.874;2022-11-15T10:12:59;5.63;;;1.90;;
13685;SDS011;6915;48.296;8.874;2022-11-15T10:15:26;7.60;;;2.17;;
13685;SDS011;6915;48.296;8.874;2022-11-15T10:18:06;4.13;;;1.97;;
13685;SDS011;6915;48.296;8.874;2022-11-15T10:20:40;7.73;;;2.00;;
13685;SDS011;6915;48.296;8.874;2022-11-15T10:23:13;4.63;;;1.90;;
13685;SDS011;6915;48.296;8.874;2022-11-15T10:25:42;6.20;;;2.07;;
13685;SDS011;6915;48.296;8.874;2022-11-15T10:28:12;1.87;;;1.50;;
13685;SDS011;6915;48.296;8.874;2022-11-15T10:30:42;1.77;;;1.30;;
13685;SDS011;6915;48.296;8.874;2022-11-15T10:33:17;1.37;;;1.27;;
13685;SDS011;6915;48.296;8.874;2022-11-15T10:35:48;1.40;;;1.20;;
13685;SDS011;6915;48.296;8.874;2022-11-15T10:38:47;2.30;;;1.40;;
13685;SDS011;6915;48.296;8.874;2022-11-15T10:41:36;1.10;;;1.00;;
13685;SDS011;6915;48.296;8.874;2022-11-15T10:44:11;3.53;;;1.17;;
13685;SDS011;6915;48.296;8.874;2022-11-15T10:46:47;1.63;;;1.40;;
13685;SDS011;6915;48.296;8.874;2022-11-15T10:49:28;1.87;;;1.50;;
13685;SDS011;6915;48.296;8.874;2022-11-15T10:51:56;2.47;;;1.33;;
13685;SDS011;6915;48.296;8.874;2022-11-15T10:54:27;2.10;;;1.60;;
13685;SDS011;6915;48.296;8.874;2022-11-15T10:56:57;1.73;;;1.60;;
13685;SDS011;6915;48.296;8.874;2022-11-15T10:59:30;1.23;;;1.10;;
13685;SDS011;6915;48.296;8.874;2022-11-15T11:01:59;1.70;;;1.33;;
13685;SDS011;6915;48.296;8.874;2022-11-15T11:04:26;2.07;;;1.50;;
13685;SDS011;6915;48.296;8.874;2022-11-15T11:06:54;2.50;;;1.40;;
13685;SDS011;6915;48.296;8.874;2022-11-15T11:09:26;5.63;;;1.80;;
13685;SDS011;6915;48.296;8.874;2022-11-15T11:11:59;1.60;;;1.50;;
13685;SDS011;6915;48.296;8.874;2022-11-15T11:14:29;2.73;;;1.67;;
13685;SDS011;6915;48.296;8.874;2022-11-15T11:17:01;2.83;;;1.70;;
13685;SDS011;6915;48.296;8.874;2022-11-15T11:22:23;3.37;;;1.30;;
13685;SDS011;6915;48.296;8.874;2022-11-15T11:25:00;1.40;;;1.30;;
13685;SDS011;6915;48.296;8.874;2022-11-15T11:27:48;2.23;;;1.37;;
13685;SDS011;6915;48.296;8.874;2022-11-15T11:30:30;1.23;;;1.03;;
13685;SDS011;6915;48.296;8.874;2022-11-15T11:33:10;1.30;;;1.10;;
13685;SDS011;6915;48.296;8.874;2022-11-15T11:35:43;1.57;;;1.47;;
13685;SDS011;6915;48.296;8.874;2022-11-15T11:38:23;1.93;;;1.53;;
13685;SDS011;6915;48.296;8.874;2022-11-15T11:41:06;3.77;;;1.87;;
13685;SDS011;6915;48.296;8.874;2022-11-15T11:43:45;2.17;;;1.97;;
13685;SDS011;6915;48.296;8.874;2022-11-15T11:46:27;4.07;;;1.63;;
13685;SDS011;6915;48.296;8.874;2022-11-15T11:49:15;1.90;;;1.70;;
13685;SDS011;6915;48.296;8.874;2022-11-15T11:51:49;2.73;;;1.90;;
13685;SDS011;6915;48.296;8.874;2022-11-15T11:54:22;3.83;;;1.60;;
13685;SDS011;6915;48.296;8.874;2022-11-15T11:56:58;2.10;;;1.47;;
13685;SDS011;6915;48.296;8.874;2022-11-15T11:59:31;1.93;;;1.50;;
13685;SDS011;6915;48.296;8.874;2022-11-15T12:02:10;4.20;;;1.60;;
13685;SDS011;6915;48.296;8.874;2022-11-15T12:04:42;5.13;;;1.50;;
13685;SDS011;6915;48.296;8.874;2022-11-15T12:07:15;2.83;;;1.57;;
13685;SDS011;6915;48.296;8.874;2022-11-15T12:09:57;1.77;;;1.37;;
13685;SDS011;6915;48.296;8.874;2022-11-15T12:12:30;2.07;;;1.40;;
13685;SDS011;6915;48.296;8.874;2022-11-15T12:15:02;3.10;;;1.57;;
13685;SDS011;6915;48.296;8.874;2022-11-15T12:17:38;1.70;;;1.60;;
13685;SDS011;6915;48.296;8.874;2022-11-15T12:20:13;3.33;;;1.70;;
13685;SDS011;6915;48.296;8.874;2022-11-15T12:22:43;3.43;;;1.60;;
13685;SDS011;6915;48.296;8.874;2022-11-15T12:25:15;4.03;;;1.83;;
13685;SDS011;6915;48.296;8.874;2022-11-15T12:27:48;2.10;;;1.60;;
13685;SDS011;6915;48.296;8.874;2022-11-15T12:30:20;2.93;;;1.37;;
13685;SDS011;6915;48.296;8.874;2022-11-15T12:32:51;2.80;;;1.70;;
13685;SDS011;6915;48.296;8.874;2022-11-15T12:35:24;1.53;;;1.00;;
13685;SDS011;6915;48.296;8.874;2022-11-15T12:37:56;1.70;;;0.83;;
13685;SDS011;6915;48.296;8.874;2022-11-15T12:40:27;2.10;;;0.70;;
13685;SDS011;6915;48.296;8.874;2022-11-15T12:43:00;2.03;;;0.80;;
13685;SDS011;6915;48.296;8.874;2022-11-15T12:45:44;0.70;;;0.60;;
13685;SDS011;6915;48.296;8.874;2022-11-15T12:57:29;1.83;;;0.70;;
13685;SDS011;6915;48.296;8.874;2022-11-15T13:00:16;1.03;;;0.80;;
13685;SDS011;6915;48.296;8.874;2022-11-15T13:03:20;0.80;;;0.60;;
13685;SDS011;6915;48.296;8.874;2022-11-15T13:06:01;1.10;;;0.90;;
13685;SDS011;6915;48.296;8.874;2022-11-15T13:08:40;0.63;;;0.60;;
13685;SDS011;6915;48.296;8.874;2022-11-15T13:14:40;1.00;;;0.90;;
13685;SDS011;6915;48.296;8.874;2022-11-15T13:17:16;1.10;;;0.80;;
13685;SDS011;6915;48.296;8.874;2022-11-15T13:23:01;0.87;;;0.73;;
13685;SDS011;6915;48.296;8.874;2022-11-15T13:25:57;0.90;;;0.80;;
13685;SDS011;6915;48.296;8.874;2022-11-15T13:28:36;1.27;;;0.70;;
13685;SDS011;6915;48.296;8.874;2022-11-15T13:31:15;0.80;;;0.80;;
13685;SDS011;6915;48.296;8.874;2022-11-15T13:33:49;0.90;;;0.80;;
13685;SDS011;6915;48.296;8.874;2022-11-15T13:36:18;1.53;;;1.07;;
13685;SDS011;6915;48.296;8.874;2022-11-15T13:38:54;1.93;;;0.70;;
13685;SDS011;6915;48.296;8.874;2022-11-15T13:41:24;0.80;;;0.50;;
13685;SDS011;6915;48.296;8.874;2022-11-15T13:43:55;0.40;;;0.40;;
13685;SDS011;6915;48.296;8.874;2022-11-15T13:46:23;1.47;;;0.50;;
13685;SDS011;6915;48.296;8.874;2022-11-15T13:48:53;1.63;;;0.63;;
13685;SDS011;6915;48.296;8.874;2022-11-15T13:51:24;0.67;;;0.60;;
13685;SDS011;6915;48.296;8.874;2022-11-15T13:53:56;0.50;;;0.50;;
13685;SDS011;6915;48.296;8.874;2022-11-15T13:56:26;2.90;;;0.70;;
13685;SDS011;6915;48.296;8.874;2022-11-15T13:58:56;0.53;;;0.53;;
13685;SDS011;6915;48.296;8.874;2022-11-15T14:01:23;0.70;;;0.50;;
13685;SDS011;6915;48.296;8.874;2022-11-15T14:03:55;1.07;;;0.50;;
13685;SDS011;6915;48.296;8.874;2022-11-15T14:06:24;0.60;;;0.50;;
13685;SDS011;6915;48.296;8.874;2022-11-15T14:12:02;0.80;;;0.80;;
13685;SDS011;6915;48.296;8.874;2022-11-15T14:14:54;1.13;;;0.50;;
13685;SDS011;6915;48.296;8.874;2022-11-15T14:17:21;0.53;;;0.53;;
13685;SDS011;6915;48.296;8.874;2022-11-15T14:19:59;0.50;;;0.50;;
13685;SDS011;6915;48.296;8.874;2022-11-15T14:22:27;0.50;;;0.50;;
13685;SDS011;6915;48.296;8.874;2022-11-15T14:25:13;0.37;;;0.33;;
13685;SDS011;6915;48.296;8.874;2022-11-15T14:27:43;0.60;;;0.43;;
13685;SDS011;6915;48.296;8.874;2022-11-15T14:30:15;1.77;;;1.67;;
13685;SDS011;6915;48.296;8.874;2022-11-15T14:32:44;0.60;;;0.60;;
13685;SDS011;6915;48.296;8.874;2022-11-15T14:35:14;0.70;;;0.50;;
13685;SDS011;6915;48.296;8.874;2022-11-15T14:37:42;3.37;;;2.77;;
13685;SDS011;6915;48.296;8.874;2022-11-15T14:40:11;11.33;;;7.17;;
13685;SDS011;6915;48.296;8.874;2022-11-15T14:42:40;3.67;;;3.17;;
13685;SDS011;6915;48.296;8.874;2022-11-15T14:45:09;0.57;;;0.50;;
13685;SDS011;6915;48.296;8.874;2022-11-15T14:47:41;1.30;;;1.20;;
13685;SDS011;6915;48.296;8.874;2022-11-15T14:50:10;7.73;;;5.33;;
13685;SDS011;6915;48.296;8.874;2022-11-15T14:52:38;2.60;;;2.40;;
13685;SDS011;6915;48.296;8.874;2022-11-15T14:55:11;1.07;;;0.70;;
13685;SDS011;6915;48.296;8.874;2022-11-15T14:57:44;0.97;;;0.90;;
13685;SDS011;6915;48.296;8.874;2022-11-15T15:00:12;1.00;;;0.80;;
13685;SDS011;6915;48.296;8.874;2022-11-15T15:02:41;1.43;;;0.93;;
13685;SDS011;6915;48.296;8.874;2022-11-15T15:05:14;2.30;;;1.37;;
13685;SDS011;6915;48.296;8.874;2022-11-15T15:07:42;1.80;;;1.70;;
13685;SDS011;6915;48.296;8.874;2022-11-15T15:10:10;0.60;;;0.60;;
13685;SDS011;6915;48.296;8.874;2022-11-15T15:12:37;0.73;;;0.70;;
13685;SDS011;6915;48.296;8.874;2022-11-15T15:15:05;1.10;;;0.77;;
13685;SDS011;6915;48.296;8.874;2022-11-15T15:17:38;2.80;;;2.60;;
13685;SDS011;6915;48.296;8.874;2022-11-15T15:20:07;2.80;;;2.60;;
13685;SDS011;6915;48.296;8.874;2022-11-15T15:22:35;3.30;;;2.63;;
13685;SDS011;6915;48.296;8.874;2022-11-15T15:25:02;1.27;;;1.00;;
13685;SDS011;6915;48.296;8.874;2022-11-15T15:27:30;1.23;;;1.00;;
13685;SDS011;6915;48.296;8.874;2022-11-15T15:29:57;1.33;;;1.23;;
13685;SDS011;6915;48.296;8.874;2022-11-15T15:32:24;1.93;;;1.40;;
13685;SDS011;6915;48.296;8.874;2022-11-15T15:34:51;1.57;;;1.40;;
13685;SDS011;6915;48.296;8.874;2022-11-15T15:37:23;1.50;;;1.40;;
13685;SDS011;6915;48.296;8.874;2022-11-15T15:39:51;2.73;;;1.70;;
13685;SDS011;6915;48.296;8.874;2022-11-15T15:42:19;1.83;;;1.73;;
13685;SDS011;6915;48.296;8.874;2022-11-15T15:44:46;1.83;;;1.47;;
13685;SDS011;6915;48.296;8.874;2022-11-15T15:47:15;2.30;;;1.77;;
13685;SDS011;6915;48.296;8.874;2022-11-15T15:49:45;2.77;;;2.00;;
13685;SDS011;6915;48.296;8.874;2022-11-15T15:52:12;1.87;;;1.50;;
13685;SDS011;6915;48.296;8.874;2022-11-15T15:54:40;2.50;;;1.87;;